createdAt,value
2023-05-19T00:01:16.849Z,91.60
2023-05-19T00:03:45.274Z,91.50
2023-05-19T00:06:13.045Z,91.00
2023-05-19T00:08:40.707Z,90.70
2023-05-19T00:11:09.086Z,90.50
2023-05-19T00:13:36.651Z,90.30
2023-05-19T00:16:04.384Z,90.20
2023-05-19T00:18:32.113Z,90.00
2023-05-19T00:20:59.744Z,90.10
2023-05-19T00:23:27.299Z,90.50
2023-05-19T00:25:55.154Z,90.20
2023-05-19T00:28:22.743Z,90.10
2023-05-19T00:30:50.648Z,89.80
2023-05-19T00:33:18.567Z,89.20
2023-05-19T00:35:46.122Z,89.40
2023-05-19T00:38:13.705Z,90.20
2023-05-19T00:40:41.688Z,89.00
2023-05-19T00:43:09.353Z,88.50
2023-05-19T00:45:37.070Z,88.20
2023-05-19T00:48:04.938Z,87.90
2023-05-19T00:50:32.964Z,87.00
2023-05-19T00:53:00.732Z,86.80
2023-05-19T00:55:28.398Z,86.20
2023-05-19T00:57:56.017Z,84.90
2023-05-19T01:00:23.631Z,84.30
2023-05-19T01:02:51.538Z,84.60
2023-05-19T01:05:19.209Z,83.80
2023-05-19T01:07:46.830Z,83.00
2023-05-19T01:10:14.618Z,83.10
2023-05-19T01:12:42.308Z,82.70
2023-05-19T01:15:09.912Z,81.70
2023-05-19T01:17:37.820Z,81.40
2023-05-19T01:20:05.466Z,82.10
2023-05-19T01:22:33.134Z,81.30
2023-05-19T01:25:01.114Z,80.90
2023-05-19T01:27:29.093Z,80.70
2023-05-19T01:29:56.724Z,80.20
2023-05-19T01:32:25.075Z,78.10
2023-05-19T01:34:52.659Z,77.50
2023-05-19T01:37:20.244Z,77.70
2023-05-19T01:39:47.920Z,76.20
2023-05-19T01:42:15.568Z,75.80
2023-05-19T01:44:43.250Z,77.10
2023-05-19T01:47:11.072Z,76.50
2023-05-19T01:49:38.657Z,76.40
2023-05-19T01:52:06.252Z,75.10
2023-05-19T01:54:34.023Z,75.30
2023-05-19T01:57:01.615Z,73.70
2023-05-19T01:59:29.212Z,74.70
2023-05-19T02:01:57.027Z,74.50
2023-05-19T02:04:24.860Z,73.10
2023-05-19T02:06:52.473Z,72.20
2023-05-19T02:09:20.261Z,72.30
2023-05-19T02:11:47.910Z,72.80
2023-05-19T02:14:16.002Z,73.10
2023-05-19T02:16:43.998Z,73.40
2023-05-19T02:19:11.594Z,73.70
2023-05-19T02:21:39.235Z,71.80
2023-05-19T02:24:06.838Z,71.20
2023-05-19T02:26:34.358Z,71.90
2023-05-19T02:29:01.982Z,71.50
2023-05-19T02:31:29.830Z,71.70
2023-05-19T02:33:58.189Z,70.90
2023-05-19T02:36:25.800Z,70.10
2023-05-19T02:38:53.418Z,68.80
2023-05-19T02:41:20.959Z,68.90
2023-05-19T02:43:48.574Z,69.00
2023-05-19T02:46:16.219Z,69.10
2023-05-19T02:48:43.828Z,68.70
2023-05-19T02:51:11.484Z,68.80
2023-05-19T02:53:39.392Z,68.60
2023-05-19T02:56:07.014Z,68.30
2023-05-19T02:58:34.645Z,68.00
2023-05-19T03:01:02.480Z,67.50
2023-05-19T03:03:30.876Z,67.50
2023-05-19T03:05:58.554Z,68.20
2023-05-19T03:08:26.398Z,68.10
2023-05-19T03:10:53.971Z,67.60
2023-05-19T03:13:21.506Z,67.80
2023-05-19T03:15:49.770Z,68.30
2023-05-19T03:18:17.370Z,66.70
2023-05-19T03:20:45.129Z,65.90
2023-05-19T03:23:12.950Z,64.20
2023-05-19T03:25:40.510Z,64.90
2023-05-19T03:28:08.072Z,65.20
2023-05-19T03:30:35.813Z,64.80
2023-05-19T03:33:03.539Z,64.70
2023-05-19T03:35:31.500Z,64.60
2023-05-19T03:37:59.312Z,62.50
2023-05-19T03:40:26.848Z,63.50
2023-05-19T03:42:54.417Z,62.60
2023-05-19T03:45:22.217Z,63.60
2023-05-19T03:47:50.130Z,64.50
2023-05-19T03:50:17.699Z,64.60
2023-05-19T03:52:45.693Z,65.20
2023-05-19T03:55:13.322Z,65.10
2023-05-19T03:57:40.928Z,66.00
2023-05-19T04:00:08.757Z,66.50
2023-05-19T04:02:36.415Z,65.30
2023-05-19T04:05:04.099Z,64.60
2023-05-19T04:07:31.812Z,63.40
2023-05-19T04:10:00.314Z,63.10
2023-05-19T04:12:27.935Z,62.60
2023-05-19T04:14:55.707Z,63.20
2023-05-19T04:17:23.388Z,63.90
2023-05-19T04:19:50.970Z,63.70
2023-05-19T04:22:20.088Z,62.40
2023-05-19T04:24:47.630Z,61.90
2023-05-19T04:27:15.615Z,61.90
2023-05-19T04:29:43.408Z,61.00
2023-05-19T04:32:10.937Z,60.80
2023-05-19T04:34:38.481Z,60.00
2023-05-19T04:37:06.501Z,60.90
2023-05-19T04:39:34.200Z,61.50
2023-05-19T04:42:02.753Z,61.60
2023-05-19T04:44:30.697Z,59.10
2023-05-19T04:46:58.330Z,59.40
2023-05-19T04:49:26.140Z,59.20
2023-05-19T04:51:55.691Z,60.60
2023-05-19T04:54:23.586Z,60.70
2023-05-19T04:56:51.550Z,61.30
2023-05-19T04:59:19.386Z,61.70
2023-05-19T05:01:47.044Z,61.40
2023-05-19T05:04:14.722Z,61.30
2023-05-19T05:06:42.466Z,60.70
2023-05-19T05:09:10.080Z,60.00
2023-05-19T05:11:37.688Z,59.80
2023-05-19T05:14:07.944Z,58.80
2023-05-19T05:16:35.690Z,60.70
2023-05-19T05:19:03.407Z,61.10
2023-05-19T05:21:31.143Z,59.80
2023-05-19T05:23:58.673Z,60.10
2023-05-19T05:26:26.262Z,59.90
2023-05-19T05:28:53.933Z,59.10
2023-05-19T05:31:21.501Z,58.50
2023-05-19T05:33:49.265Z,58.90
2023-05-19T05:36:16.962Z,58.80
2023-05-19T05:38:45.227Z,58.50
2023-05-19T05:41:12.855Z,58.10
2023-05-19T05:43:40.687Z,57.30
2023-05-19T05:46:08.523Z,57.60
2023-05-19T05:48:36.246Z,56.40
2023-05-19T05:51:04.112Z,56.00
2023-05-19T05:53:32.491Z,56.10
2023-05-19T05:56:00.163Z,56.00
2023-05-19T05:58:28.038Z,57.60
2023-05-19T06:00:55.657Z,57.80
2023-05-19T06:03:24.977Z,56.10
2023-05-19T06:05:53.004Z,54.60
2023-05-19T06:08:20.697Z,53.40
2023-05-19T06:10:49.758Z,54.50
2023-05-19T06:13:17.442Z,54.60
2023-05-19T06:15:45.084Z,54.10
2023-05-19T06:18:12.786Z,54.70
2023-05-19T06:20:40.695Z,53.90
2023-05-19T06:23:08.377Z,54.60
2023-05-19T06:25:35.972Z,54.00
2023-05-19T06:28:03.831Z,53.60
2023-05-19T06:30:31.826Z,52.90
2023-05-19T06:32:59.733Z,52.50
2023-05-19T06:35:28.986Z,52.60
2023-05-19T06:37:56.877Z,53.60
2023-05-19T06:40:24.768Z,53.60
2023-05-19T06:42:55.189Z,54.40
2023-05-19T06:45:27.820Z,54.20
2023-05-19T06:47:55.667Z,56.20
2023-05-19T06:50:23.340Z,53.60
2023-05-19T06:52:51.284Z,54.00
2023-05-19T06:55:19.165Z,54.00
2023-05-19T06:57:46.825Z,53.50
2023-05-19T07:00:17.061Z,53.00
2023-05-19T07:02:45.710Z,54.00
2023-05-19T07:05:13.367Z,53.50
2023-05-19T07:07:40.948Z,53.40
2023-05-19T07:10:12.366Z,53.30
2023-05-19T07:12:40.585Z,52.50
2023-05-19T07:15:08.248Z,52.00
2023-05-19T07:17:36.501Z,52.60
2023-05-19T07:20:05.277Z,52.20
2023-05-19T07:22:33.042Z,52.20
2023-05-19T07:25:00.955Z,51.90
2023-05-19T07:27:28.544Z,52.60
2023-05-19T07:29:56.180Z,52.30
2023-05-19T07:32:25.353Z,51.70
2023-05-19T07:34:53.004Z,52.40
2023-05-19T07:37:20.577Z,51.90
2023-05-19T07:39:48.238Z,52.60
2023-05-19T07:42:15.866Z,51.90
2023-05-19T07:44:43.465Z,51.60
2023-05-19T07:47:11.108Z,51.20
2023-05-19T07:49:38.881Z,51.00
2023-05-19T07:52:06.485Z,51.00
2023-05-19T07:54:34.438Z,51.70
2023-05-19T07:57:02.045Z,51.70
2023-05-19T07:59:29.734Z,50.80
2023-05-19T08:01:58.601Z,50.90
2023-05-19T08:04:26.337Z,51.00
2023-05-19T08:06:53.976Z,51.30
2023-05-19T08:09:21.586Z,52.00
2023-05-19T08:11:50.318Z,51.10
2023-05-19T08:14:17.927Z,50.00
2023-05-19T08:16:45.814Z,49.10
2023-05-19T08:19:13.625Z,50.30
2023-05-19T08:21:41.280Z,50.10
2023-05-19T08:24:09.139Z,49.40
2023-05-19T08:26:37.777Z,49.70
2023-05-19T08:29:05.730Z,50.30
2023-05-19T08:31:33.817Z,50.10
2023-05-19T08:34:01.493Z,50.60
2023-05-19T08:36:29.040Z,51.20
2023-05-19T08:38:56.798Z,50.60
2023-05-19T08:41:24.406Z,50.30
2023-05-19T08:43:52.302Z,49.80
2023-05-19T08:46:20.004Z,50.00
2023-05-19T08:48:47.659Z,50.10
2023-05-19T08:51:15.211Z,50.30
2023-05-19T08:53:43.039Z,50.50
2023-05-19T08:56:10.708Z,50.50
2023-05-19T08:58:38.330Z,50.60
2023-05-19T09:01:06.031Z,50.70
2023-05-19T09:03:33.842Z,50.80
2023-05-19T09:06:01.576Z,51.70
2023-05-19T09:08:29.605Z,51.00
2023-05-19T09:10:57.242Z,50.00
2023-05-19T09:13:24.873Z,50.10
2023-05-19T09:15:52.586Z,50.50
2023-05-19T09:18:20.386Z,50.80
2023-05-19T09:20:47.975Z,50.80
2023-05-19T09:23:15.850Z,50.10
2023-05-19T09:25:43.526Z,50.60
2023-05-19T09:28:11.289Z,50.90
2023-05-19T09:30:39.174Z,50.50
2023-05-19T09:33:07.740Z,51.00
2023-05-19T09:35:35.645Z,51.80
2023-05-19T09:38:03.560Z,52.00
2023-05-19T09:40:31.154Z,52.90
2023-05-19T09:42:58.757Z,53.10
2023-05-19T09:45:26.742Z,53.20
2023-05-19T09:47:57.166Z,52.90
2023-05-19T09:50:24.767Z,51.90
2023-05-19T09:52:52.503Z,52.90
2023-05-19T09:55:20.065Z,53.10
2023-05-19T09:57:47.648Z,53.30
2023-05-19T10:00:15.524Z,53.50
2023-05-19T10:02:43.184Z,53.70
2023-05-19T10:05:10.875Z,53.80
2023-05-19T10:07:38.790Z,54.00
2023-05-19T10:10:06.396Z,54.50
2023-05-19T10:12:34.040Z,55.40
2023-05-19T10:15:01.845Z,55.60
2023-05-19T10:17:29.493Z,55.80
2023-05-19T10:19:57.170Z,56.10
2023-05-19T10:22:25.786Z,56.70
2023-05-19T10:24:53.370Z,57.10
2023-05-19T10:27:21.101Z,57.60
2023-05-19T10:29:48.959Z,58.20
2023-05-19T10:32:16.953Z,59.50
2023-05-19T10:34:44.612Z,59.00
2023-05-19T10:37:12.262Z,59.20
2023-05-19T10:39:40.008Z,60.10
2023-05-19T10:42:07.694Z,60.40
2023-05-19T10:44:35.866Z,61.10
2023-05-19T10:47:03.561Z,61.60
2023-05-19T10:49:31.252Z,61.30
2023-05-19T10:51:58.910Z,63.70
2023-05-19T10:54:26.513Z,64.00
2023-05-19T10:56:54.318Z,63.30
2023-05-19T10:59:22.063Z,62.90
2023-05-19T11:01:49.717Z,63.00
2023-05-19T11:04:17.395Z,63.60
2023-05-19T11:06:45.277Z,63.50
2023-05-19T11:09:13.050Z,64.10
2023-05-19T11:11:40.964Z,64.20
2023-05-19T11:14:08.565Z,64.80
2023-05-19T11:16:36.145Z,65.30
2023-05-19T11:19:03.876Z,65.50
2023-05-19T11:21:32.005Z,67.00
2023-05-19T11:23:59.646Z,67.70
2023-05-19T11:26:27.263Z,67.70
2023-05-19T11:28:55.004Z,68.10
2023-05-19T11:31:22.650Z,68.80
2023-05-19T11:33:50.316Z,68.40
2023-05-19T11:36:18.120Z,69.40
2023-05-19T11:38:45.741Z,69.60
2023-05-19T11:41:13.337Z,70.60
2023-05-19T11:43:41.336Z,70.60
2023-05-19T11:46:09.066Z,70.50
2023-05-19T11:48:37.023Z,70.30
2023-05-19T11:51:04.705Z,70.30
2023-05-19T11:53:33.372Z,71.40
2023-05-19T11:56:02.714Z,71.20
2023-05-19T11:58:30.699Z,71.70
2023-05-19T12:00:58.243Z,72.30
2023-05-19T12:03:25.925Z,72.40
2023-05-19T12:05:53.688Z,72.70
2023-05-19T12:08:21.307Z,73.20
2023-05-19T12:10:49.116Z,74.00
2023-05-19T12:13:17.028Z,73.80
2023-05-19T12:15:44.863Z,73.70
2023-05-19T12:18:12.637Z,73.40
2023-05-19T12:20:40.617Z,73.70
2023-05-19T12:23:08.214Z,74.30
2023-05-19T12:25:36.029Z,74.80
2023-05-19T12:28:04.228Z,75.00
2023-05-19T12:30:33.222Z,74.80
2023-05-19T12:33:01.352Z,75.10
2023-05-19T12:35:29.349Z,75.20
2023-05-19T12:37:56.981Z,75.00
2023-05-19T12:40:24.572Z,75.80
2023-05-19T12:42:52.386Z,76.30
2023-05-19T12:45:19.981Z,76.20
2023-05-19T12:47:48.686Z,75.30
2023-05-19T12:50:16.632Z,76.00
2023-05-19T12:52:44.212Z,76.00
2023-05-19T12:55:11.966Z,75.30
2023-05-19T12:57:40.529Z,75.00
2023-05-19T13:00:08.197Z,75.70
2023-05-19T13:02:36.054Z,75.60
2023-05-19T13:05:05.063Z,75.60
2023-05-19T13:07:32.672Z,75.50
2023-05-19T13:10:00.297Z,75.10
2023-05-19T13:12:28.054Z,74.70
2023-05-19T13:14:55.865Z,75.10
2023-05-19T13:17:23.576Z,75.70
2023-05-19T13:19:51.513Z,75.80
2023-05-19T13:22:19.216Z,76.00
2023-05-19T13:24:46.849Z,75.70
2023-05-19T13:27:14.803Z,76.10
2023-05-19T13:29:42.435Z,76.40
2023-05-19T13:32:10.194Z,76.50
2023-05-19T13:34:37.890Z,76.10
2023-05-19T13:37:06.630Z,76.50
2023-05-19T13:39:35.290Z,76.40
2023-05-19T13:42:04.613Z,76.70
2023-05-19T13:44:33.052Z,76.90
2023-05-19T13:47:00.654Z,76.60
2023-05-19T13:49:28.583Z,76.80
2023-05-19T13:51:56.632Z,76.60
2023-05-19T13:54:24.260Z,76.40
2023-05-19T13:56:52.343Z,76.90
2023-05-19T13:59:20.237Z,77.30
2023-05-19T14:01:47.884Z,76.80
2023-05-19T14:04:15.919Z,78.20
2023-05-19T14:06:43.732Z,78.00
2023-05-19T14:09:11.413Z,77.60
2023-05-19T14:11:39.039Z,77.60
2023-05-19T14:14:06.640Z,78.50
2023-05-19T14:16:35.174Z,79.10
2023-05-19T14:19:04.357Z,79.40
2023-05-19T14:21:32.296Z,79.70
2023-05-19T14:24:00.035Z,78.80
2023-05-19T14:26:29.210Z,77.70
2023-05-19T14:28:57.036Z,77.30
2023-05-19T14:31:24.686Z,76.60
2023-05-19T14:33:53.534Z,75.70
2023-05-19T14:36:21.246Z,76.10
2023-05-19T14:38:48.778Z,76.00
2023-05-19T14:41:16.491Z,76.30
2023-05-19T14:43:44.088Z,75.80
2023-05-19T14:46:11.892Z,75.90
2023-05-19T14:48:40.133Z,75.50
2023-05-19T14:51:08.279Z,75.40
2023-05-19T14:53:36.436Z,75.30
2023-05-19T14:56:05.897Z,75.40
2023-05-19T14:58:34.267Z,74.50
2023-05-19T15:01:01.903Z,73.70
2023-05-19T15:03:29.778Z,73.50
2023-05-19T15:05:57.365Z,73.40
2023-05-19T15:08:25.054Z,73.30
2023-05-19T15:10:54.389Z,73.10
2023-05-19T15:13:22.157Z,72.80
2023-05-19T15:15:50.101Z,73.00
2023-05-19T15:18:17.965Z,72.80
2023-05-19T15:20:45.656Z,72.90
2023-05-19T15:23:13.297Z,72.70
2023-05-19T15:25:41.116Z,72.80
2023-05-19T15:28:08.733Z,72.80
2023-05-19T15:30:36.734Z,72.80
2023-05-19T15:33:04.844Z,72.50
2023-05-19T15:35:33.062Z,72.20
2023-05-19T15:38:00.871Z,72.10
2023-05-19T15:40:28.784Z,71.80
2023-05-19T15:42:56.383Z,71.80
2023-05-19T15:45:23.989Z,71.50
2023-05-19T15:47:51.661Z,71.70
2023-05-19T15:50:19.375Z,71.90
2023-05-19T15:52:46.927Z,71.50
2023-05-19T15:55:15.384Z,71.30
2023-05-19T15:57:42.955Z,71.30
2023-05-19T16:00:10.496Z,71.30
2023-05-19T16:02:38.598Z,70.70
2023-05-19T16:05:06.255Z,70.80
2023-05-19T16:07:33.845Z,70.50
2023-05-19T16:10:02.227Z,70.60
2023-05-19T16:12:29.796Z,70.40
2023-05-19T16:14:57.406Z,70.40
2023-05-19T16:17:25.005Z,70.50
2023-05-19T16:19:52.742Z,70.70
2023-05-19T16:22:21.795Z,70.70
2023-05-19T16:24:50.097Z,70.90
2023-05-19T16:27:17.690Z,71.10
2023-05-19T16:29:45.237Z,71.10
2023-05-19T16:32:14.515Z,71.10
2023-05-19T16:34:45.801Z,71.60
2023-05-19T16:37:13.403Z,71.90
2023-05-19T16:39:41.207Z,72.00
2023-05-19T16:42:08.877Z,72.80
2023-05-19T16:44:36.473Z,73.10
2023-05-19T16:47:04.356Z,73.10
2023-05-19T16:49:31.871Z,72.80
2023-05-19T16:52:02.270Z,73.30
2023-05-19T16:54:30.060Z,73.40
2023-05-19T16:56:57.967Z,73.60
2023-05-19T16:59:26.796Z,73.90
2023-05-19T17:01:56.245Z,73.50
2023-05-19T17:04:23.914Z,73.30
2023-05-19T17:06:51.503Z,73.80
2023-05-19T17:09:19.326Z,73.80
2023-05-19T17:11:46.988Z,73.60
2023-05-19T17:14:14.645Z,73.90
2023-05-19T17:16:43.369Z,73.50
2023-05-19T17:19:10.996Z,73.00
2023-05-19T17:21:38.788Z,73.10
2023-05-19T17:24:06.512Z,73.50
2023-05-19T17:26:34.146Z,73.70
2023-05-19T17:29:01.856Z,73.60
2023-05-19T17:31:29.404Z,73.70
2023-05-19T17:33:57.136Z,73.80
2023-05-19T17:36:24.744Z,73.80
2023-05-19T17:38:53.644Z,73.80
2023-05-19T17:41:21.263Z,74.30
2023-05-19T17:43:48.881Z,74.00
2023-05-19T17:46:16.771Z,73.80
2023-05-19T17:48:44.323Z,74.60
2023-05-19T17:51:11.818Z,74.30
2023-05-19T17:53:39.691Z,74.00
2023-05-19T17:56:07.661Z,74.80
2023-05-19T17:58:35.553Z,74.70
2023-05-19T18:01:03.392Z,75.20
2023-05-19T18:03:34.805Z,74.90
2023-05-19T18:06:03.221Z,74.90
2023-05-19T18:08:31.137Z,75.10
2023-05-19T18:10:58.908Z,75.40
2023-05-19T18:13:27.678Z,75.60
2023-05-19T18:15:56.542Z,75.90
2023-05-19T18:18:24.269Z,76.30
2023-05-19T18:20:52.135Z,75.80
2023-05-19T18:23:20.619Z,76.10
2023-05-19T18:25:50.064Z,76.30
2023-05-19T18:28:17.858Z,76.60
2023-05-19T18:30:45.760Z,76.40
2023-05-19T18:33:13.425Z,76.70
2023-05-19T18:35:41.524Z,76.60
2023-05-19T18:38:09.297Z,77.40
2023-05-19T18:40:36.964Z,77.40
2023-05-19T18:43:06.395Z,77.30
2023-05-19T18:45:34.902Z,77.90
2023-05-19T18:48:02.623Z,77.20
2023-05-19T18:50:30.459Z,77.50
2023-05-19T18:52:58.064Z,78.10
2023-05-19T18:55:25.753Z,77.40
2023-05-19T18:57:53.621Z,77.20
2023-05-19T19:00:21.196Z,76.60
2023-05-19T19:02:48.937Z,77.00
2023-05-19T19:05:21.300Z,77.20
2023-05-19T19:07:49.312Z,77.10
2023-05-19T19:10:17.044Z,77.40
2023-05-19T19:12:44.743Z,77.50
2023-05-19T19:15:12.444Z,77.60
2023-05-19T19:17:40.181Z,78.00
2023-05-19T19:20:08.157Z,78.10
2023-05-19T19:22:36.108Z,78.20
2023-05-19T19:25:03.887Z,78.00
2023-05-19T19:27:31.668Z,78.10
2023-05-19T19:29:59.337Z,78.20
2023-05-19T19:32:26.987Z,78.00
2023-05-19T19:34:55.030Z,78.10
2023-05-19T19:37:22.826Z,78.50
2023-05-19T19:39:50.503Z,78.50
2023-05-19T19:42:18.680Z,79.10
2023-05-19T19:44:47.108Z,79.60
2023-05-19T19:47:15.021Z,79.60
2023-05-19T19:49:43.056Z,79.40
2023-05-19T19:52:10.733Z,79.20
2023-05-19T19:54:38.285Z,79.10
2023-05-19T19:57:06.096Z,79.10
2023-05-19T19:59:34.558Z,79.70
2023-05-19T20:02:02.381Z,79.90
2023-05-19T20:04:30.338Z,79.90
2023-05-19T20:06:58.008Z,80.40
2023-05-19T20:09:25.595Z,80.60
2023-05-19T20:11:53.244Z,80.20
2023-05-19T20:14:21.747Z,80.50
2023-05-19T20:16:49.338Z,80.60
2023-05-19T20:19:19.612Z,80.70
2023-05-19T20:21:47.932Z,80.60
2023-05-19T20:24:15.637Z,80.80
2023-05-19T20:26:43.673Z,81.10
2023-05-19T20:29:11.549Z,81.40
2023-05-19T20:31:40.445Z,81.30
2023-05-19T20:34:08.663Z,81.10
2023-05-19T20:36:39.331Z,81.00
2023-05-19T20:39:07.003Z,81.70
2023-05-19T20:41:34.735Z,81.90
2023-05-19T20:44:02.800Z,81.50
2023-05-19T20:46:34.601Z,81.40
2023-05-19T20:49:02.496Z,81.60
2023-05-19T20:51:30.155Z,81.20
2023-05-19T20:53:57.782Z,82.10
2023-05-19T20:56:25.503Z,82.20
2023-05-19T20:58:53.281Z,82.20
2023-05-19T21:01:20.933Z,82.70
2023-05-19T21:03:52.106Z,83.10
2023-05-19T21:06:19.940Z,83.10
2023-05-19T21:08:48.562Z,83.40
2023-05-19T21:11:16.208Z,83.40
2023-05-19T21:13:44.127Z,83.60
2023-05-19T21:16:11.744Z,83.80
2023-05-19T21:18:39.443Z,83.80
2023-05-19T21:21:07.069Z,84.20
2023-05-19T21:23:34.648Z,84.80
2023-05-19T21:26:02.367Z,84.80
2023-05-19T21:28:30.090Z,85.30
2023-05-19T21:30:57.810Z,85.70
2023-05-19T21:33:25.435Z,85.80
2023-05-19T21:35:53.263Z,85.70
2023-05-19T21:38:24.023Z,85.20
2023-05-19T21:40:52.236Z,84.80
2023-05-19T21:43:20.098Z,84.60
2023-05-19T21:45:48.140Z,84.90
2023-05-19T21:48:15.906Z,84.80
2023-05-19T21:50:43.825Z,84.40
2023-05-19T21:55:52.459Z,84.00
2023-05-19T21:58:20.209Z,84.20
2023-05-19T22:00:47.784Z,84.60
2023-05-19T22:03:15.861Z,84.60
2023-05-19T22:05:43.538Z,84.70
2023-05-19T22:08:11.161Z,84.80
2023-05-19T22:10:39.066Z,85.30
2023-05-19T22:13:06.611Z,85.60
2023-05-19T22:15:34.242Z,85.80
2023-05-19T22:18:02.365Z,85.70
2023-05-19T22:20:30.071Z,85.80
2023-05-19T22:22:58.033Z,85.70
2023-05-19T22:25:26.042Z,86.10
2023-05-19T22:27:53.932Z,86.70
2023-05-19T22:30:21.455Z,86.90
2023-05-19T22:32:49.533Z,87.20
2023-05-19T22:35:17.291Z,86.90
2023-05-19T22:37:44.908Z,87.20
2023-05-19T22:40:12.900Z,88.40
2023-05-19T22:42:40.519Z,90.00
2023-05-19T22:45:08.190Z,90.40
2023-05-19T22:47:36.243Z,91.10
2023-05-19T22:50:03.844Z,91.40
2023-05-19T22:52:33.371Z,91.00
2023-05-19T22:55:01.334Z,90.80
2023-05-19T22:57:29.098Z,90.70
2023-05-19T22:59:56.763Z,91.20
2023-05-19T23:02:24.748Z,91.80
2023-05-19T23:04:53.425Z,91.30
2023-05-19T23:07:21.183Z,91.20
2023-05-19T23:09:49.071Z,91.60
2023-05-19T23:12:18.878Z,91.50
2023-05-19T23:14:46.557Z,91.70
2023-05-19T23:17:14.657Z,92.00
2023-05-19T23:19:42.762Z,91.90
2023-05-19T23:22:11.188Z,91.80
2023-05-19T23:24:39.830Z,91.80
2023-05-19T23:27:07.572Z,91.80
2023-05-19T23:29:35.255Z,92.10
2023-05-19T23:32:03.325Z,92.90
2023-05-19T23:34:31.229Z,92.70
2023-05-19T23:36:59.576Z,92.40
2023-05-19T23:39:28.185Z,91.50
2023-05-19T23:41:55.891Z,90.50
2023-05-19T23:44:23.603Z,89.60
2023-05-19T23:46:51.415Z,89.10
2023-05-19T23:49:19.323Z,89.00
2023-05-19T23:51:47.013Z,88.40
2023-05-19T23:54:14.995Z,88.70
2023-05-19T23:56:42.775Z,88.50
2023-05-19T23:59:10.505Z,88.50
